• Join FlightAware (Why Join?)
  • Login
  • US Flag 
07:49AM EDT


 

Airport Tracker/Info


-or-


 

Live Flight TrackerFlight Track Log ✈ TCF3516 ✈ 29-Apr-2013 ✈ KDEN - KBNA

Flight Track Log - Related Links

Times and Time Zones

All times are in EDT time to prevent confusion due to time zone crossing. See the TCF3516 flight status page for this flight to view local times or setup timezone preferences in your user account.

Time Position Orientation Groundspeed Altitude Reporting Facility
EDT Latitude Longitude Course Direction KTS MPH feet Rate Location/Type
12:33PM 39.7833 -104.6167 95° East 188 216 7,700  Level Denver TRACON
12:34PM 39.7661 -104.5331 105° East 262 302 9,200 1,560 Climbing Denver Center
12:35PM 39.7734 -104.0504 105° East  Level FlightAware Approximate
12:35PM 39.7678 -104.4194 89° East 315 362 11,000  Level Denver Center
12:36PM 39.7599 -103.8959 99° East  Level FlightAware Approximate
12:36PM 39.7678 -104.2819 90° East 358 412 13,700  Level Denver Center
12:37PM 39.7329 -103.7441 95° East  Level FlightAware Approximate
12:37PM 39.7606 -104.1492 94° East 370 426 16,600  Level Denver Center
12:38PM 39.7226 -103.5884 95° East  Level FlightAware Approximate
12:38PM 39.7567 -104.0058 92° East 372 428 19,200  Level Denver Center
12:39PM 39.7514 -103.8658 93° East 387 445 21,300 1,740 Climbing Denver Center
12:40PM 39.7475 -103.7250 92° East 393 452 22,900 1,620 Climbing Denver Center
12:41PM 39.7439 -103.5756 92° East 406 467 24,700 1,680 Climbing Denver Center
12:42PM 39.7394 -103.4200 92° East 424 488 26,400 1,620 Climbing Denver Center
12:43PM 39.7269 -103.2364 95° East 432 497 28,100 1,560 Climbing Denver Center
12:44PM 39.7106 -103.0775 98° East 438 504 29,700 1,560 Climbing Denver Center
12:46PM 39.6947 -102.9217 97° East 433 498 31,400 1,440 Climbing Denver Center
12:47PM 39.6786 -102.7692 98° East 425 489 32,700 720 Climbing Denver Center
12:48PM 39.6644 -102.6214 97° East 423 487 33,000 120 Climbing Denver Center
12:49PM 39.6464 -102.4533 98° East 421 484 33,000  Level Denver Center
12:50PM 39.6311 -102.3067 98° East 428 493 33,000  Level Denver Center
12:51PM 39.6111 -102.1264 98° East 451 519 33,000  Level Denver Center
12:52PM 39.5933 -101.9667 98° East 467 537 33,000  Level Denver Center
12:53PM 39.5725 -101.7750 98° East 480 552 33,000  Level Denver Center
12:54PM 39.5544 -101.6111 98° East 482 555 33,000  Level Denver Center
12:55PM 39.5322 -101.4214 99° East 480 552 33,000  Level Denver Center
12:56PM 39.5131 -101.2572 99° East 482 555 33,000  Level Denver Center
12:57PM 39.4903 -101.0619 99° East 491 565 33,000  Level Denver Center
12:58PM 39.4711 -100.8958 98° East 489 563 33,000  Level Denver Center
12:59PM 39.4475 -100.7025 99° East 489 563 33,000  Level Denver Center
01:00PM 39.4267 -100.5314 99° East 499 574 33,000  Level Denver Center
01:01PM 39.4017 -100.3328 99° East 502 578 33,000  Level Denver Center
01:02PM 39.3803 -100.1622 99° East 503 579 33,000  Level Denver Center
01:03PM 39.3553 -99.9619 99° East 506 582 33,000  Level Denver Center
01:04PM 39.3331 -99.7914 100° East 504 580 33,000  Level Denver Center
01:05PM 39.3072 -99.5914 99° East 507 583 33,000  Level Denver Center
01:06PM 39.2844 -99.4200 100° East 506 582 33,000  Level Denver Center
01:07PM 39.2614 -99.2494 100° East 507 583 33,000  Level Denver Center
01:08PM 39.2350 -99.0503 100° East 506 582 33,000  Level Denver Center
01:09PM 39.2100 -98.8678 100° East 505 581 33,000  Level Denver Center
01:10PM 39.1844 -98.6886 100° East 509 586 33,000  Level Denver Center
01:11PM 39.1600 -98.5103 100° East 508 585 33,000  Level Denver Center
01:12PM 39.1356 -98.3342 100° East 502 578 33,000  Level Denver Center
01:13PM 39.1075 -98.1375 100° East 505 581 33,000  Level Kansas City Center
01:15PM 39.0808 -97.9619 101° East 501 577 33,000  Level Kansas City Center
01:16PM 39.0506 -97.7500 100° East 498 573 33,000  Level Kansas City Center
01:17PM 39.0256 -97.5828 101° East 497 572 33,000  Level Kansas City Center
01:18PM 38.9964 -97.3892 101° East 494 568 33,000  Level Kansas City Center
01:19PM 38.9714 -97.2272 101° East 495 570 33,000  Level Kansas City Center
01:20PM 38.9450 -97.0531 101° East 495 570 33,000  Level Kansas City Center
01:21PM 38.9175 -96.8769 101° East 499 574 33,000  Level Kansas City Center
01:22PM 38.8900 -96.7028 101° East 499 574 33,000  Level Kansas City Center
01:23PM 38.8567 -96.4922 101° East 499 574 33,000  Level Kansas City Center
01:24PM 38.8253 -96.3042 102° East 503 579 33,000  Level Kansas City Center
01:25PM 38.7983 -96.1378 102° East 502 578 33,000  Level Kansas City Center
01:26PM 38.7717 -95.9744 102° East 495 570 33,000  Level Kansas City Center
01:27PM 38.7411 -95.7833 102° East 493 567 33,000  Level Kansas City Center
01:28PM 38.7125 -95.6181 102° East 497 572 33,000  Level Kansas City Center
01:29PM 38.6808 -95.4253 102° East 501 577 33,000  Level Kansas City Center
01:30PM 38.6533 -95.2606 102° East 498 573 33,000  Level Kansas City Center
01:31PM 38.6203 -95.0731 103° East 490 564 33,000  Level Kansas City Center
01:32PM 38.5914 -94.9086 103° East 495 570 33,000  Level Kansas City Center
01:33PM 38.5592 -94.7197 102° East 491 565 33,000  Level Kansas City Center
01:34PM 38.5289 -94.5567 103° East 493 567 33,000  Level Kansas City Center
01:35PM 38.4950 -94.3650 103° East 496 571 33,000  Level Kansas City Center
01:36PM 38.4653 -94.2028 103° East 494 568 33,000  Level Kansas City Center
01:37PM 38.4314 -94.0144 103° East 490 564 33,000  Level Kansas City Center
01:38PM 38.4022 -93.8422 102° East 494 568 33,000  Level Kansas City Center
01:39PM 38.3703 -93.6728 103° East 491 565 33,000  Level Kansas City Center
01:40PM 38.3367 -93.5036 104° East 491 565 33,000  Level Kansas City Center
01:41PM 38.3064 -93.3328 103° East 494 568 33,000  Level Kansas City Center
01:42PM 38.2672 -93.1297 104° East 493 567 33,000  Level Kansas City Center
01:43PM 38.2353 -92.9603 103° East 490 564 33,000  Level Kansas City Center
01:45PM 38.2008 -92.7917 105° East 490 564 33,000  Level Kansas City Center
01:46PM 38.1692 -92.6194 103° East 496 571 33,000  Level Kansas City Center
01:47PM 38.1328 -92.4497 105° East 498 573 33,000  Level Kansas City Center
01:48PM 38.1047 -92.2847 102° East 492 566 33,000  Level Kansas City Center
01:49PM 38.0689 -92.1161 105° East 495 570 33,000  Level Kansas City Center
01:50PM 38.0311 -91.9314 105° East 495 570 33,000  Level Kansas City Center
01:51PM 37.9975 -91.7633 104° East 492 566 33,000  Level Kansas City Center
01:52PM 37.9553 -91.5622 105° East 490 564 33,000  Level Kansas City Center
01:53PM 37.9181 -91.3969 106° East 488 562 33,000  Level Kansas City Center
01:54PM 37.8583 -91.2417 116° Southeast 487 560 33,000  Level Kansas City Center
01:55PM 37.7978 -91.0878 116° Southeast 488 562 33,000  Level Kansas City Center
01:56PM 37.7317 -90.9272 117° Southeast 490 564 33,000  Level Kansas City Center
01:57PM 37.6683 -90.7764 118° Southeast 490 564 33,000  Level Kansas City Center
01:58PM 37.6075 -90.6256 117° Southeast 487 560 33,000 -60 Level Kansas City Center
01:59PM 37.5442 -90.4769 118° Southeast 485 558 32,900 -720 Descending Kansas City Center
02:00PM 37.4844 -90.3222 116° Southeast 489 563 31,600 -960 Descending Kansas City Center
02:01PM 37.4633 -90.1217 97° East 485 558 31,000 -300 Descending Kansas City Center
02:02PM 37.4475 -89.9608 97° East 472 543 31,000  Level Kansas City Center
02:03PM 37.4303 -89.7947 97° East 473 544 31,000  Level Kansas City Center
02:04PM 37.4142 -89.6250 97° East 478 550 31,000  Level Kansas City Center
02:05PM 37.3972 -89.4553 97° East 485 558 31,000  Level Kansas City Center
02:06PM 37.3769 -89.2539 97° East 484 557 31,000  Level Kansas City Center
02:07PM 37.3419 -89.0906 105° East 483 556 31,000  Level Kansas City Center
02:08PM 37.3014 -88.9328 108° East 475 547 31,000  Level Kansas City Center
02:09PM 37.2567 -88.7439 107° East 478 550 31,000  Level Memphis Center
02:10PM 37.2150 -88.5858 108° East 478 550 31,000  Level Memphis Center
02:11PM 37.1753 -88.4278 107° East 478 550 31,000  Level Memphis Center
02:12PM 37.1333 -88.2911 111° Southeast 480 552 31,000 -1,380 Level Memphis Center
02:13PM 37.0864 -88.0997 107° East 485 558 28,300 -2,460 Descending Memphis Center
02:14PM 37.0458 -87.9425 108° East 485 558 25,700 -2,700 Descending Memphis Center
02:15PM 37.0075 -87.7956 108° East 461 531 23,000 -2,580 Descending Memphis Center
02:16PM 36.9964 -87.7622 113° Southeast 455 524 22,500 -2,040 Descending Memphis Center
02:16PM 36.9714 -87.6642 108° East 456 525 21,000 -2,220 Descending Memphis Center
02:17PM 36.9328 -87.5175 108° East 438 504 18,700 -2,400 Descending Memphis Center
02:19PM 36.8806 -87.3431 110° East 409 471 15,800 -2,220 Descending Memphis Center
02:19PM 36.8617 -87.2531 105° East 409 471 14,300 -2,040 Descending Memphis Center
02:20PM 36.8211 -87.1275 112° Southeast 392 451 12,200 -1,140 Descending Memphis Center
02:21PM 36.7336 -87.0508 145° Southeast 365 420 12,100 -60 Descending Memphis Center
02:22PM 36.6297 -86.9853 153° Southeast 376 433 12,100  Level Memphis Center
02:23PM 36.5342 -86.9272 154° Southeast 381 438 12,200 -1,560 Climbing Memphis Center
02:24PM 36.4389 -86.8669 153° Southeast 386 444 9,000 -1,260 Descending Memphis Center
02:25PM 36.3603 -86.8186 154° Southeast 349 402 9,700 -300 Climbing Memphis Center
02:26PM 36.2925 -86.7806 156° South 308 354 8,400 -1,500 Descending Memphis Center
02:27PM 36.2208 -86.7528 163° South 281 323 6,800 -1,500 Descending Memphis Center
02:28PM 36.1569 -86.7814 200° South 244 281 5,400 -1,800 Descending Memphis Center
02:29PM 36.0931 -86.8047 196° South 230 265 3,300 -1,200 Descending Memphis Center
02:30PM 36.0444 -86.7836 161° South 196 226 3,000 -660 Descending Memphis Center
02:31PM 36.0403 -86.7144 94° East 165 190 2,000 -960 Descending Memphis Center
02:32PM 36.0794 -86.6947 22° Northeast 116 133 1,100 -600 Descending Memphis Center
02:33PM 36.0975 -86.6708 47° Northeast 109 125 800 -360 Descending Memphis Center